Time;durP1;ratioP1;P1;durP2;ratioP2;P2;SDS_P1;SDS_P2;PMS_P1;PMS_P2;Temp;Humidity;BMP_temperature;BMP_pressure;BME280_temperature;BME280_humidity;BME280_pressure;Samples;Min_cycle;Max_cycle;Signal;HPM_P1;HPM_P2
2023/08/21 00:00:08;;;;;;;9.48;2.60;;;24.70;99.90;;;;;;5091619;28;20132;-59
2023/08/21 00:02:33;;;;;;;8.15;2.65;;;24.70;99.90;;;;;;5091586;28;20028;-59
2023/08/21 00:04:59;;;;;;;9.00;2.25;;;24.60;99.90;;;;;;5091552;28;20039;-59
2023/08/21 00:07:24;;;;;;;6.93;2.25;;;24.60;99.90;;;;;;5091419;28;20089;-59
2023/08/21 00:09:51;;;;;;;8.93;2.70;;;24.70;99.90;;;;;;5091470;28;20028;-59
2023/08/21 00:12:16;;;;;;;6.68;2.10;;;24.90;99.90;;;;;;5091055;28;20123;-59
2023/08/21 00:14:42;;;;;;;7.13;2.40;;;25.10;99.90;;;;;;5091321;28;20107;-59
2023/08/21 00:17:08;;;;;;;6.90;2.20;;;25.20;99.90;;;;;;5091235;28;20111;-59
2023/08/21 00:19:34;;;;;;;6.75;2.30;;;25.20;99.90;;;;;;5091804;28;20020;-59
2023/08/21 00:22:00;;;;;;;5.40;2.10;;;25.40;99.90;;;;;;5073204;28;20500;-59
2023/08/21 00:24:26;;;;;;;6.68;2.20;;;25.30;99.90;;;;;;5091527;28;20024;-59
2023/08/21 00:26:51;;;;;;;8.98;2.30;;;25.30;99.90;;;;;;5090764;28;20443;-59
2023/08/21 00:29:17;;;;;;;10.82;2.72;;;25.30;99.90;;;;;;5091763;28;20078;-59
2023/08/21 00:31:43;;;;;;;8.75;2.60;;;25.30;99.90;;;;;;5091280;28;20123;-59
2023/08/21 00:34:08;;;;;;;9.77;2.80;;;25.10;99.90;;;;;;5091213;28;20020;-58
2023/08/21 00:36:34;;;;;;;12.75;3.35;;;25.30;99.90;;;;;;5091272;28;20035;-59
2023/08/21 00:39:00;;;;;;;9.60;3.00;;;25.10;99.90;;;;;;5092572;28;20024;-59
2023/08/21 00:41:26;;;;;;;9.23;2.75;;;25.10;99.90;;;;;;5095548;28;20024;-59
2023/08/21 00:43:51;;;;;;;9.35;2.75;;;25.00;99.90;;;;;;5095336;28;20507;-59
2023/08/21 00:46:17;;;;;;;9.05;3.10;;;25.10;99.90;;;;;;5095175;28;20070;-59
2023/08/21 00:48:44;;;;;;;10.23;3.38;;;24.90;99.90;;;;;;5095335;28;20024;-59
2023/08/21 00:51:11;;;;;;;10.85;3.10;;;24.70;99.90;;;;;;5095087;28;20126;-59
2023/08/21 00:53:38;;;;;;;10.25;2.85;;;24.60;99.90;;;;;;5095051;28;20032;-59
2023/08/21 00:56:04;;;;;;;10.15;2.80;;;24.50;99.90;;;;;;5093785;28;20028;-59
2023/08/21 00:58:30;;;;;;;9.63;2.83;;;24.40;99.90;;;;;;5095038;28;20172;-59
2023/08/21 01:00:57;;;;;;;8.65;2.63;;;24.40;99.90;;;;;;5095030;28;20142;-59
2023/08/21 01:03:23;;;;;;;8.30;2.75;;;24.30;99.90;;;;;;5094968;28;20032;-59
2023/08/21 01:05:49;;;;;;;9.90;2.75;;;24.10;99.90;;;;;;5095034;28;20090;-59
2023/08/21 01:08:24;;;;;;;10.57;3.00;;;24.10;99.90;;;;;;5094951;28;20453;-58
2023/08/21 01:11:05;;;;;;;9.23;2.90;;;24.00;99.90;;;;;;5094394;28;20020;-59
2023/08/21 01:13:52;;;;;;;9.82;2.90;;;24.00;99.90;;;;;;5094792;28;20027;-59
2023/08/21 01:16:19;;;;;;;10.63;3.20;;;24.00;99.90;;;;;;5094784;28;20458;-58
2023/08/21 01:18:47;;;;;;;7.43;2.65;;;23.80;99.90;;;;;;5094652;28;20020;-58
2023/08/21 01:21:13;;;;;;;7.43;2.70;;;23.70;99.90;;;;;;5074429;28;20051;-59
2023/08/21 01:23:41;;;;;;;9.02;3.10;;;23.70;99.90;;;;;;5074557;28;20021;-59
2023/08/21 01:26:07;;;;;;;9.38;2.80;;;23.70;99.90;;;;;;5073593;28;20581;-59
2023/08/21 01:28:34;;;;;;;12.77;3.28;;;23.80;99.90;;;;;;5056435;28;20067;-59
2023/08/21 01:31:21;;;;;;;11.32;3.30;;;24.10;99.90;;;;;;5074246;28;20029;-59
2023/08/21 01:33:52;;;;;;;13.25;2.97;;;24.20;99.90;;;;;;5074099;28;20110;-58
2023/08/21 01:36:18;;;;;;;14.57;3.60;;;24.30;99.90;;;;;;5074132;28;20037;-59
2023/08/21 01:38:45;;;;;;;11.57;3.25;;;24.40;99.90;;;;;;5073848;28;20039;-58
2023/08/21 01:41:10;;;;;;;13.05;3.70;;;24.20;99.90;;;;;;5073864;28;20115;-58
2023/08/21 01:43:36;;;;;;;13.52;3.63;;;24.40;99.90;;;;;;5074028;28;20107;-58
2023/08/21 01:46:03;;;;;;;10.60;3.53;;;24.40;99.90;;;;;;5073882;28;20098;-59
2023/08/21 01:48:29;;;;;;;9.23;3.13;;;24.30;99.90;;;;;;5074221;28;20028;-59
2023/08/21 01:50:54;;;;;;;9.93;3.20;;;24.30;99.90;;;;;;5072749;28;20020;-59
2023/08/21 01:53:20;;;;;;;12.57;3.13;;;24.40;99.90;;;;;;5073757;28;20036;-58
2023/08/21 01:55:46;;;;;;;12.05;3.47;;;24.30;99.90;;;;;;5073726;28;20431;-58
2023/08/21 01:58:11;;;;;;;13.50;3.40;;;24.40;99.90;;;;;;5073673;28;20028;-58
2023/08/21 02:00:37;;;;;;;11.45;3.20;;;24.30;99.90;;;;;;5073636;28;20024;-59
2023/08/21 02:03:03;;;;;;;10.65;3.25;;;24.40;99.90;;;;;;5073662;28;20039;-59
2023/08/21 02:05:29;;;;;;;10.80;3.13;;;24.30;99.90;;;;;;5073760;28;20028;-58
2023/08/21 02:07:54;;;;;;;10.43;3.20;;;24.40;99.90;;;;;;5073176;28;20532;-59
2023/08/21 02:10:20;;;;;;;10.68;3.20;;;24.20;99.90;;;;;;5073392;28;20032;-59
2023/08/21 02:12:45;;;;;;;10.30;3.10;;;24.10;99.90;;;;;;5073532;28;20071;-59
2023/08/21 02:15:11;;;;;;;8.52;3.22;;;24.00;99.90;;;;;;5084944;28;20110;-59
2023/08/21 02:17:37;;;;;;;12.80;3.45;;;23.80;99.90;;;;;;5093915;28;20020;-59
2023/08/21 02:20:03;;;;;;;11.60;3.70;;;23.70;99.90;;;;;;5093381;28;20473;-59
2023/08/21 02:22:28;;;;;;;8.77;2.80;;;23.70;99.90;;;;;;5093081;28;20031;-59
2023/08/21 02:24:54;;;;;;;8.43;3.15;;;23.60;99.90;;;;;;5093725;28;20233;-58
2023/08/21 02:27:20;;;;;;;10.77;3.10;;;23.50;99.90;;;;;;5093011;28;20051;-59
2023/08/21 02:29:45;;;;;;;12.18;3.78;;;23.50;99.90;;;;;;5093354;28;20111;-59
2023/08/21 02:32:11;;;;;;;11.00;3.00;;;23.40;99.90;;;;;;5093166;28;20489;-59
2023/08/21 02:34:37;;;;;;;11.15;3.38;;;23.40;99.90;;;;;;5075118;28;20077;-59
2023/08/21 02:37:03;;;;;;;12.70;3.45;;;23.30;99.90;;;;;;5092705;28;20416;-59
2023/08/21 02:39:28;;;;;;;10.05;3.17;;;23.30;99.90;;;;;;5092935;28;20370;-59
2023/08/21 02:41:54;;;;;;;13.38;3.58;;;23.30;99.90;;;;;;5093072;28;20043;-59
2023/08/21 02:44:20;;;;;;;12.73;3.60;;;23.20;99.90;;;;;;5093144;28;20032;-59
2023/08/21 02:46:45;;;;;;;12.82;3.78;;;23.20;99.90;;;;;;5092836;28;20020;-58
2023/08/21 02:49:11;;;;;;;12.85;3.55;;;23.40;99.90;;;;;;5092827;28;20024;-59
2023/08/21 02:51:36;;;;;;;12.20;4.13;;;23.50;99.90;;;;;;5092843;28;20028;-59
2023/08/21 02:54:02;;;;;;;13.80;3.42;;;23.60;99.90;;;;;;5092903;28;20028;-58
2023/08/21 02:56:28;;;;;;;12.23;3.63;;;23.80;99.90;;;;;;5092906;28;20028;-58
2023/08/21 02:58:53;;;;;;;11.65;3.55;;;24.00;99.90;;;;;;5092706;28;20080;-59
2023/08/21 03:01:19;;;;;;;17.23;4.28;;;23.90;99.90;;;;;;5091872;28;20100;-59
2023/08/21 03:03:45;;;;;;;11.30;3.45;;;24.00;99.90;;;;;;5092640;28;20037;-58
2023/08/21 03:06:10;;;;;;;11.00;3.17;;;24.10;99.90;;;;;;5092253;28;20035;-59
2023/08/21 03:08:36;;;;;;;11.93;3.72;;;24.00;99.90;;;;;;5092669;28;20075;-59
2023/08/21 03:11:02;;;;;;;10.75;3.17;;;24.10;99.90;;;;;;5092468;28;20032;-58
2023/08/21 03:13:27;;;;;;;10.68;3.33;;;24.10;99.90;;;;;;5092781;28;20130;-59
2023/08/21 03:15:53;;;;;;;11.18;3.38;;;24.20;99.90;;;;;;5092326;28;20031;-59
2023/08/21 03:18:19;;;;;;;12.13;3.75;;;24.10;99.90;;;;;;5092224;28;20488;-58
2023/08/21 03:20:45;;;;;;;11.45;2.90;;;24.10;99.90;;;;;;5091901;28;20032;-59
2023/08/21 03:23:12;;;;;;;8.68;2.90;;;24.10;99.90;;;;;;5092710;28;20088;-58
2023/08/21 03:25:37;;;;;;;8.88;2.45;;;24.10;99.90;;;;;;5091930;28;20028;-58
2023/08/21 03:28:03;;;;;;;8.63;2.85;;;23.90;99.90;;;;;;5092308;28;20491;-59
2023/08/21 03:30:29;;;;;;;9.27;2.97;;;23.70;99.90;;;;;;5092132;28;20028;-59
2023/08/21 03:32:55;;;;;;;8.05;2.50;;;23.60;99.90;;;;;;5091917;28;20040;-59
2023/08/21 03:35:20;;;;;;;9.77;2.92;;;23.40;99.90;;;;;;5091705;28;20028;-59
2023/08/21 03:37:46;;;;;;;7.57;2.70;;;23.30;99.90;;;;;;5091921;28;20035;-59
2023/08/21 03:40:12;;;;;;;5.22;1.70;;;23.30;99.90;;;;;;5091958;28;20042;-59
2023/08/21 03:42:37;;;;;;;7.38;1.92;;;23.30;99.90;;;;;;5092339;28;20427;-59
2023/08/21 03:45:04;;;;;;;5.03;1.80;;;23.30;99.90;;;;;;5091742;28;20055;-58
2023/08/21 03:47:30;;;;;;;2.58;1.42;;;23.30;99.90;;;;;;5092074;28;20024;-59
2023/08/21 03:49:56;;;;;;;4.18;1.50;;;23.20;99.90;;;;;;5091470;28;20027;-59
2023/08/21 03:52:22;;;;;;;4.82;1.73;;;23.10;99.90;;;;;;5091679;28;20036;-59
2023/08/21 03:54:47;;;;;;;6.22;1.50;;;23.10;99.90;;;;;;5091843;28;20149;-59
2023/08/21 03:57:13;;;;;;;19.02;2.38;;;23.10;99.90;;;;;;5092061;28;20024;-58
2023/08/21 03:59:39;;;;;;;6.18;1.65;;;23.00;99.90;;;;;;5091643;28;20067;-59
2023/08/21 04:02:04;;;;;;;3.22;1.52;;;23.10;99.90;;;;;;5091513;28;20101;-59
2023/08/21 04:04:30;;;;;;;2.42;1.20;;;23.10;99.90;;;;;;5091190;28;20621;-59
2023/08/21 04:06:56;;;;;;;3.25;1.20;;;23.10;99.90;;;;;;5091494;28;20118;-59
2023/08/21 04:09:21;;;;;;;3.38;1.60;;;23.30;99.90;;;;;;5091947;28;20104;-58
2023/08/21 04:11:47;;;;;;;3.80;1.70;;;23.50;99.90;;;;;;5091327;28;20081;-59
2023/08/21 04:14:13;;;;;;;2.15;1.05;;;23.60;99.90;;;;;;5091238;28;20176;-59
2023/08/21 04:16:38;;;;;;;4.25;1.20;;;23.70;99.90;;;;;;5091673;28;20028;-58
2023/08/21 04:19:05;;;;;;;2.83;1.10;;;23.90;99.90;;;;;;5091157;28;20095;-59
2023/08/21 04:21:31;;;;;;;2.83;1.13;;;24.00;99.90;;;;;;5091332;28;20024;-58
2023/08/21 04:23:56;;;;;;;3.28;1.27;;;23.90;99.90;;;;;;5091431;28;20404;-58
2023/08/21 04:26:22;;;;;;;3.45;1.10;;;23.90;99.90;;;;;;5091092;28;20051;-58
2023/08/21 04:28:48;;;;;;;3.05;1.58;;;23.90;99.90;;;;;;5091216;28;20111;-59
2023/08/21 04:31:13;;;;;;;2.70;1.10;;;23.90;99.90;;;;;;5091194;28;20031;-58
2023/08/21 04:33:39;;;;;;;2.70;1.27;;;23.80;99.90;;;;;;5056404;28;20479;-58
2023/08/21 04:36:05;;;;;;;3.58;1.10;;;23.80;99.90;;;;;;5091084;28;20028;-58
2023/08/21 04:38:31;;;;;;;2.05;1.10;;;23.80;99.90;;;;;;5091570;28;20052;-59
2023/08/21 04:41:05;;;;;;;3.03;1.23;;;23.80;99.90;;;;;;5091156;28;20051;-59
2023/08/21 04:43:30;;;;;;;3.15;1.25;;;23.70;99.90;;;;;;5091193;28;20032;-59
2023/08/21 04:45:56;;;;;;;3.05;1.25;;;23.50;99.90;;;;;;5090700;28;20035;-59
2023/08/21 04:48:22;;;;;;;2.53;1.40;;;23.30;99.90;;;;;;5090780;28;20086;-59
2023/08/21 04:50:47;;;;;;;3.55;1.50;;;23.10;99.90;;;;;;5091425;28;20020;-59
2023/08/21 04:53:13;;;;;;;3.90;1.52;;;23.00;99.90;;;;;;5091156;28;20392;-58
2023/08/21 04:55:40;;;;;;;2.70;1.25;;;22.90;99.90;;;;;;5091220;28;20039;-59
2023/08/21 04:58:07;;;;;;;2.58;1.20;;;22.90;99.90;;;;;;5091057;28;20057;-59
2023/08/21 05:00:33;;;;;;;3.00;1.30;;;22.80;99.90;;;;;;5091026;28;20024;-59
2023/08/21 05:02:58;;;;;;;4.05;1.10;;;22.70;99.90;;;;;;5090675;28;20026;-58
2023/08/21 05:05:24;;;;;;;3.22;1.30;;;22.70;99.90;;;;;;5090939;28;20027;-59
2023/08/21 05:07:50;;;;;;;3.50;1.30;;;22.60;99.90;;;;;;5091362;28;20024;-59
2023/08/21 05:10:15;;;;;;;4.05;1.20;;;22.60;99.90;;;;;;5090801;28;20063;-59
2023/08/21 05:12:41;;;;;;;3.35;1.40;;;22.60;99.90;;;;;;5091202;28;20032;-59
2023/08/21 05:15:07;;;;;;;5.10;1.30;;;22.50;99.90;;;;;;5090695;28;20032;-59
2023/08/21 05:17:33;;;;;;;2.08;1.10;;;22.50;99.90;;;;;;5090923;28;20024;-58
2023/08/21 05:19:58;;;;;;;3.22;1.20;;;22.40;99.90;;;;;;5090761;28;20381;-59
2023/08/21 05:22:24;;;;;;;3.50;1.30;;;22.50;99.90;;;;;;5090793;28;20052;-58
2023/08/21 05:24:50;;;;;;;4.18;1.40;;;22.50;99.90;;;;;;5091778;28;20455;-58
2023/08/21 05:27:15;;;;;;;5.47;1.40;;;22.80;99.90;;;;;;5094441;28;20085;-58
2023/08/21 05:29:41;;;;;;;2.83;1.30;;;22.90;99.90;;;;;;5094534;28;20024;-59
2023/08/21 05:32:07;;;;;;;3.72;1.45;;;23.00;99.90;;;;;;5093927;28;20036;-59
2023/08/21 05:34:32;;;;;;;4.20;1.40;;;23.10;99.90;;;;;;5094962;28;20103;-58
2023/08/21 05:36:58;;;;;;;5.68;1.60;;;23.20;99.90;;;;;;5094354;28;20077;-58
2023/08/21 05:39:24;;;;;;;2.85;1.20;;;23.30;99.90;;;;;;5094337;28;20024;-59
2023/08/21 05:41:49;;;;;;;2.60;1.30;;;23.30;99.90;;;;;;5094657;28;20111;-61
2023/08/21 05:44:15;;;;;;;2.90;1.30;;;23.30;99.90;;;;;;5094297;28;20051;-58
2023/08/21 05:46:41;;;;;;;2.78;1.40;;;23.30;99.90;;;;;;5093825;28;20046;-59
2023/08/21 05:49:06;;;;;;;2.35;1.30;;;23.20;99.90;;;;;;5094147;28;20446;-58
2023/08/21 05:51:32;;;;;;;4.22;1.50;;;23.30;99.90;;;;;;5093953;28;20396;-59
2023/08/21 05:53:58;;;;;;;3.85;1.30;;;23.30;99.90;;;;;;5094067;28;20028;-59
2023/08/21 05:56:23;;;;;;;2.90;1.15;;;23.30;99.90;;;;;;5094342;28;20546;-59
2023/08/21 05:58:49;;;;;;;1.92;1.15;;;23.30;99.90;;;;;;5093886;28;20035;-59
2023/08/21 06:01:15;;;;;;;2.80;1.23;;;23.20;99.90;;;;;;5093595;28;20032;-58
2023/08/21 06:03:40;;;;;;;2.47;1.17;;;23.00;99.90;;;;;;5093794;28;20032;-59
2023/08/21 06:06:06;;;;;;;3.50;1.23;;;22.80;99.90;;;;;;5093795;28;20054;-59
2023/08/21 06:08:32;;;;;;;3.63;1.55;;;22.60;99.90;;;;;;5093704;28;20039;-58
2023/08/21 06:10:57;;;;;;;4.28;1.40;;;22.50;99.90;;;;;;5093611;28;20031;-59
2023/08/21 06:13:25;;;;;;;3.83;1.30;;;22.40;99.90;;;;;;5093561;28;20032;-58
2023/08/21 06:15:51;;;;;;;4.10;1.30;;;22.40;99.90;;;;;;5093055;28;20113;-59
2023/08/21 06:18:16;;;;;;;2.80;1.30;;;22.40;99.90;;;;;;5093937;28;20028;-58
2023/08/21 06:20:43;;;;;;;3.35;1.30;;;22.40;99.90;;;;;;5093462;28;20457;-59
2023/08/21 06:23:10;;;;;;;5.15;1.38;;;22.40;99.90;;;;;;5093381;28;20023;-59
2023/08/21 06:25:36;;;;;;;4.68;1.30;;;22.30;99.90;;;;;;5075114;28;20523;-59
2023/08/21 06:28:02;;;;;;;2.45;1.33;;;22.30;99.90;;;;;;5093284;28;20112;-59
2023/08/21 06:30:28;;;;;;;2.33;1.25;;;22.30;99.90;;;;;;5093071;28;20061;-60
2023/08/21 06:32:55;;;;;;;4.13;1.80;;;22.40;99.90;;;;;;5093223;28;20036;-59
2023/08/21 06:35:20;;;;;;;2.47;1.25;;;22.40;99.90;;;;;;5093103;28;20020;-59
2023/08/21 06:37:46;;;;;;;3.65;1.20;;;22.40;99.90;;;;;;5093164;28;20099;-59
2023/08/21 06:40:12;;;;;;;2.97;1.52;;;22.40;99.90;;;;;;5093055;28;20473;-59
2023/08/21 06:42:38;;;;;;;4.30;1.20;;;22.40;99.90;;;;;;5093041;28;20056;-59
2023/08/21 06:45:07;;;;;;;2.85;1.30;;;22.70;99.90;;;;;;5092677;28;20496;-58
2023/08/21 06:47:33;;;;;;;2.72;1.35;;;22.90;99.90;;;;;;5092907;28;20020;-59
2023/08/21 06:50:00;;;;;;;3.20;1.30;;;23.20;99.90;;;;;;5093031;28;20020;-59
2023/08/21 06:52:26;;;;;;;4.25;1.40;;;23.30;99.90;;;;;;5092875;28;20202;-58
2023/08/21 06:54:52;;;;;;;3.95;1.30;;;23.40;99.90;;;;;;5093055;28;20028;-58
2023/08/21 06:57:17;;;;;;;4.03;1.25;;;23.50;99.90;;;;;;5092809;28;20111;-59
2023/08/21 06:59:43;;;;;;;2.38;1.40;;;23.50;99.90;;;;;;5092367;28;20027;-58
2023/08/21 07:02:09;;;;;;;3.97;1.60;;;23.60;99.90;;;;;;5092982;28;20039;-59
2023/08/21 07:04:35;;;;;;;4.05;1.40;;;23.60;99.90;;;;;;5093242;28;20500;-58
2023/08/21 07:07:01;;;;;;;2.83;1.20;;;23.70;99.90;;;;;;5092520;28;20067;-58
2023/08/21 07:09:27;;;;;;;4.25;1.30;;;23.70;99.90;;;;;;5092515;28;20031;-58
2023/08/21 07:11:52;;;;;;;2.53;1.40;;;23.80;99.90;;;;;;5092376;28;20036;-59
2023/08/21 07:14:19;;;;;;;2.63;1.40;;;23.80;99.90;;;;;;5092016;28;20024;-58
2023/08/21 07:16:45;;;;;;;5.93;1.50;;;23.80;99.90;;;;;;5092921;28;20111;-59
2023/08/21 07:19:11;;;;;;;3.40;1.20;;;23.90;99.90;;;;;;5092231;28;20130;-59
2023/08/21 07:21:38;;;;;;;4.00;1.92;;;23.80;99.90;;;;;;5092287;28;20032;-62
2023/08/21 07:24:04;;;;;;;3.92;1.40;;;23.60;99.90;;;;;;5092183;28;20400;-58
2023/08/21 07:26:29;;;;;;;3.13;1.45;;;23.40;99.90;;;;;;5092400;28;20055;-58
2023/08/21 07:28:55;;;;;;;2.35;1.23;;;23.30;99.90;;;;;;5091807;28;20025;-59
2023/08/21 07:31:21;;;;;;;3.58;1.63;;;23.20;99.90;;;;;;5092010;28;20111;-59
2023/08/21 07:33:48;;;;;;;3.10;1.45;;;23.20;99.90;;;;;;5092023;28;20044;-59
2023/08/21 07:36:17;;;;;;;5.18;1.50;;;23.20;99.90;;;;;;5092434;28;20027;-59
2023/08/21 07:38:43;;;;;;;2.08;1.48;;;23.20;99.90;;;;;;5091962;28;20031;-59
2023/08/21 07:41:11;;;;;;;3.05;1.17;;;23.30;99.90;;;;;;5092195;28;20125;-59
2023/08/21 07:43:37;;;;;;;5.68;1.95;;;23.30;99.90;;;;;;5091607;28;20480;-59
2023/08/21 07:46:15;;;;;;;2.70;1.50;;;23.30;99.90;;;;;;5091828;28;20024;-58
2023/08/21 07:48:42;;;;;;;4.22;1.58;;;23.40;99.90;;;;;;5091588;28;20031;-58
2023/08/21 07:51:08;;;;;;;4.97;1.60;;;23.40;99.90;;;;;;5091642;28;20111;-59
2023/08/21 07:53:34;;;;;;;3.92;1.50;;;23.50;99.90;;;;;;5091872;28;20119;-59
2023/08/21 07:56:00;;;;;;;3.83;1.73;;;23.50;99.90;;;;;;5091738;28;20095;-58
2023/08/21 07:58:26;;;;;;;2.85;1.48;;;23.60;99.90;;;;;;5091761;28;20471;-58
2023/08/21 08:00:52;;;;;;;3.53;1.55;;;23.70;99.90;;;;;;5091708;28;20055;-58
2023/08/21 08:03:18;;;;;;;3.33;1.40;;;23.80;99.90;;;;;;5091928;28;20051;-58
2023/08/21 08:05:43;;;;;;;4.60;1.67;;;24.00;99.90;;;;;;5073502;28;20066;-58
2023/08/21 08:08:09;;;;;;;3.80;1.60;;;24.30;99.90;;;;;;5091525;28;20031;-59
2023/08/21 08:10:39;;;;;;;6.88;1.70;;;24.50;99.90;;;;;;5091231;28;20445;-58
2023/08/21 08:13:05;;;;;;;3.38;1.40;;;24.50;99.90;;;;;;5091390;28;20032;-58
2023/08/21 08:15:31;;;;;;;4.07;1.50;;;24.60;99.90;;;;;;5091280;28;20032;-59
2023/08/21 08:17:57;;;;;;;6.47;1.58;;;24.80;99.90;;;;;;5091716;28;20117;-58
2023/08/21 08:20:23;;;;;;;3.63;1.75;;;24.90;99.90;;;;;;5091484;28;20023;-59
2023/08/21 08:22:49;;;;;;;4.53;1.55;;;25.00;99.90;;;;;;5091589;28;20028;-58
2023/08/21 08:25:14;;;;;;;2.70;1.70;;;25.00;99.90;;;;;;5091223;28;20020;-58
2023/08/21 08:27:40;;;;;;;5.78;1.85;;;25.00;99.90;;;;;;5090891;28;20134;-58
2023/08/21 08:30:07;;;;;;;3.08;1.80;;;25.10;99.90;;;;;;5091673;28;20032;-59
2023/08/21 08:32:32;;;;;;;3.45;1.63;;;25.20;99.90;;;;;;5091261;28;20123;-59
2023/08/21 08:34:58;;;;;;;3.75;1.80;;;25.20;99.90;;;;;;5091253;28;20099;-59
2023/08/21 08:37:24;;;;;;;4.15;1.80;;;25.30;99.90;;;;;;5091111;28;20024;-59
2023/08/21 08:39:50;;;;;;;5.68;1.83;;;25.40;99.90;;;;;;5090800;28;20020;-59
2023/08/21 08:42:16;;;;;;;3.80;2.05;;;25.50;99.90;;;;;;5091682;28;20039;-59
2023/08/21 08:44:43;;;;;;;5.13;2.28;;;25.50;99.90;;;;;;5091290;28;20037;-58
2023/08/21 08:47:10;;;;;;;5.00;2.33;;;25.40;99.90;;;;;;5091305;28;20571;-59
2023/08/21 08:49:38;;;;;;;6.22;2.53;;;25.30;99.90;;;;;;5091065;28;20035;-58
2023/08/21 08:52:04;;;;;;;6.88;2.72;;;25.30;99.90;;;;;;5090844;28;20093;-58
2023/08/21 08:54:30;;;;;;;6.10;2.58;;;25.30;99.90;;;;;;5090679;28;20111;-58
2023/08/21 08:56:57;;;;;;;6.50;2.70;;;25.40;99.90;;;;;;5091066;28;20043;-58
2023/08/21 08:59:23;;;;;;;7.90;3.00;;;25.50;99.90;;;;;;5091492;28;20443;-58
2023/08/21 09:01:48;;;;;;;7.53;3.20;;;25.50;99.90;;;;;;5095064;28;20062;-58
2023/08/21 09:04:14;;;;;;;6.97;3.00;;;25.60;99.90;;;;;;5095109;28;20021;-58
2023/08/21 09:06:40;;;;;;;6.40;3.25;;;25.70;99.90;;;;;;5094845;28;20067;-58
2023/08/21 09:09:07;;;;;;;10.43;5.93;;;25.70;99.90;;;;;;5094883;28;20032;-59
2023/08/21 09:11:34;;;;;;;11.88;6.28;;;25.70;99.90;;;;;;5095347;28;20046;-58
2023/08/21 09:14:00;;;;;;;9.45;6.90;;;25.80;99.90;;;;;;5094726;28;20051;-58
2023/08/21 09:16:26;;;;;;;5.18;3.75;;;25.90;99.90;;;;;;5094798;28;20058;-58
2023/08/21 09:18:54;;;;;;;4.68;2.88;;;26.00;99.90;;;;;;5076430;28;20533;-58
2023/08/21 09:21:21;;;;;;;4.95;2.75;;;26.00;99.90;;;;;;5094580;28;20016;-58
2023/08/21 09:23:48;;;;;;;4.65;2.15;;;26.10;99.90;;;;;;5094749;28;20039;-58
2023/08/21 09:26:21;;;;;;;7.57;5.22;;;26.30;99.90;;;;;;5094426;28;20052;-58
2023/08/21 09:28:50;;;;;;;3.45;2.38;;;26.50;99.90;;;;;;5094447;28;20024;-58
2023/08/21 09:31:16;;;;;;;4.03;2.13;;;26.80;99.90;;;;;;5094823;28;20111;-58
2023/08/21 09:33:42;;;;;;;4.78;1.92;;;27.00;99.90;;;;;;5094339;28;20024;-58
2023/08/21 09:36:11;;;;;;;3.25;2.00;;;27.30;99.90;;;;;;5094218;28;20020;-58
2023/08/21 09:38:40;;;;;;;4.45;1.90;;;27.30;99.90;;;;;;5094484;28;20051;-59
2023/08/21 09:41:06;;;;;;;4.25;1.73;;;27.30;99.90;;;;;;5094289;28;20439;-58
2023/08/21 09:43:33;;;;;;;2.65;1.60;;;27.40;99.90;;;;;;5094299;28;20028;-58
2023/08/21 09:45:58;;;;;;;3.60;1.80;;;27.30;99.90;;;;;;5094258;28;20043;-58
2023/08/21 09:48:28;;;;;;;4.38;1.90;;;27.50;99.90;;;;;;5094101;28;20500;-58
2023/08/21 09:50:55;;;;;;;5.13;1.83;;;27.60;99.90;;;;;;5093970;28;20085;-58
2023/08/21 09:53:22;;;;;;;2.92;1.75;;;27.70;99.90;;;;;;5093538;28;20051;-58
2023/08/21 09:55:52;;;;;;;5.05;2.28;;;27.80;99.90;;;;;;5094101;28;20480;-58
2023/08/21 09:58:19;;;;;;;2.83;1.70;;;27.60;99.90;;;;;;5094313;28;20061;-58
2023/08/21 10:00:48;;;;;;;4.60;1.80;;;27.80;99.90;;;;;;5093830;28;20024;-59
2023/08/21 10:03:19;;;;;;;3.47;1.90;;;27.90;99.90;;;;;;5093843;28;20060;-58
2023/08/21 10:05:45;;;;;;;2.92;1.60;;;27.90;99.90;;;;;;5093607;28;20027;-58
2023/08/21 10:08:14;;;;;;;3.75;1.90;;;27.80;99.90;;;;;;5093493;28;20069;-58
2023/08/21 10:10:40;;;;;;;2.65;1.70;;;27.90;99.90;;;;;;5093374;28;20423;-58
2023/08/21 10:13:07;;;;;;;5.88;2.08;;;27.90;99.90;;;;;;5093951;28;20036;-59
2023/08/21 10:15:35;;;;;;;3.35;1.73;;;27.80;99.90;;;;;;5093534;28;20031;-58
2023/08/21 10:18:18;;;;;;;4.70;2.78;;;27.80;99.90;;;;;;5093511;28;20031;-58
2023/08/21 10:20:43;;;;;;;3.60;2.03;;;27.80;99.90;;;;;;5093773;28;20024;-58
2023/08/21 10:23:09;;;;;;;3.92;1.63;;;27.80;99.90;;;;;;5093393;28;20024;-58
2023/08/21 10:25:41;;;;;;;7.00;1.70;;;27.70;99.90;;;;;;5093415;28;20549;-58
2023/08/21 10:28:07;;;;;;;4.60;2.03;;;27.80;99.90;;;;;;5093292;28;20062;-59
2023/08/21 10:30:33;;;;;;;7.78;2.30;;;27.80;99.90;;;;;;5093471;28;20020;-58
2023/08/21 10:32:59;;;;;;;5.65;2.10;;;27.80;99.90;;;;;;5093496;28;20072;-58
2023/08/21 10:35:34;;;;;;;8.50;2.13;;;27.90;99.90;;;;;;5092910;28;20020;-58
2023/08/21 10:38:17;;;;;;;7.68;2.40;;;27.90;99.90;;;;;;5093210;28;20093;-58
2023/08/21 10:41:08;;;;;;;5.43;2.10;;;27.90;99.90;;;;;;5093282;28;20029;-58
2023/08/21 10:43:45;;;;;;;4.28;2.20;;;27.80;99.90;;;;;;5093074;28;20028;-58
2023/08/21 10:46:11;;;;;;;4.68;1.90;;;28.00;99.90;;;;;;5092951;28;20108;-58
2023/08/21 10:48:38;;;;;;;6.90;2.08;;;28.30;99.90;;;;;;5093328;28;20119;-58
2023/08/21 10:51:06;;;;;;;3.40;2.03;;;28.50;99.90;;;;;;5092615;28;20408;-58
2023/08/21 10:53:33;;;;;;;4.97;2.20;;;28.60;99.90;;;;;;5092743;28;20032;-59
2023/08/21 10:56:06;;;;;;;4.72;2.33;;;28.80;99.90;;;;;;5092876;28;20043;-59
2023/08/21 10:58:41;;;;;;;3.88;1.80;;;29.00;99.90;;;;;;5092904;28;20023;-59
2023/08/21 11:01:07;;;;;;;3.80;2.20;;;28.90;99.90;;;;;;5092837;28;20051;-59
2023/08/21 11:03:32;;;;;;;6.22;2.20;;;29.00;99.90;;;;;;5092863;28;20044;-59
2023/08/21 11:06:06;;;;;;;5.35;1.60;;;28.90;99.90;;;;;;5092229;28;20024;-59
2023/08/21 11:08:33;;;;;;;3.53;1.90;;;28.90;99.90;;;;;;5092745;28;20556;-59
2023/08/21 11:10:59;;;;;;;3.65;2.00;;;29.00;99.90;;;;;;5092450;28;20114;-59
2023/08/21 11:13:26;;;;;;;2.67;1.80;;;29.20;99.90;;;;;;5092798;28;20035;-59
2023/08/21 11:15:59;;;;;;;3.10;2.08;;;29.20;99.90;;;;;;5092263;28;20048;-59
2023/08/21 11:18:38;;;;;;;3.83;1.80;;;29.30;99.90;;;;;;5092393;28;20408;-59
2023/08/21 11:21:08;;;;;;;4.57;1.85;;;29.30;99.90;;;;;;5091916;28;20096;-59
2023/08/21 11:23:43;;;;;;;4.10;1.60;;;29.30;99.90;;;;;;5092090;28;20035;-59
2023/08/21 11:26:12;;;;;;;3.65;1.90;;;29.30;99.90;;;;;;5087210;28;20037;-59
2023/08/21 11:28:39;;;;;;;3.40;1.70;;;29.30;99.90;;;;;;5072101;28;20016;-59
2023/08/21 11:31:06;;;;;;;4.97;1.80;;;29.40;99.90;;;;;;5071945;28;20021;-58
2023/08/21 11:33:32;;;;;;;2.90;1.77;;;29.40;99.90;;;;;;5071744;28;20344;-60
2023/08/21 11:36:00;;;;;;;5.63;2.25;;;29.30;99.90;;;;;;5071457;28;20052;-59
2023/08/21 11:38:27;;;;;;;6.40;2.60;;;29.20;99.90;;;;;;5071745;28;20043;-59
2023/08/21 11:40:57;;;;;;;5.38;2.20;;;29.10;99.90;;;;;;5071830;28;20052;-59
2023/08/21 11:43:34;;;;;;;6.45;2.20;;;29.10;99.90;;;;;;5072063;28;20024;-59
2023/08/21 11:46:02;;;;;;;5.15;2.15;;;29.10;99.90;;;;;;5071674;28;20025;-59
2023/08/21 11:48:28;;;;;;;7.20;2.20;;;29.00;99.90;;;;;;5071294;28;20028;-59
2023/08/21 11:50:54;;;;;;;7.43;2.03;;;29.00;99.90;;;;;;5071690;28;20392;-59
2023/08/21 11:53:37;;;;;;;7.88;2.40;;;28.80;99.90;;;;;;5071449;28;20496;-59
2023/08/21 11:56:13;;;;;;;6.22;2.40;;;28.90;99.90;;;;;;5071537;28;20012;-59
2023/08/21 11:58:47;;;;;;;5.72;2.30;;;28.80;99.90;;;;;;5071924;28;20103;-59
2023/08/21 12:01:22;;;;;;;7.32;2.70;;;28.90;99.90;;;;;;5071531;28;20025;-59
2023/08/21 12:03:54;;;;;;;5.47;2.70;;;28.90;99.90;;;;;;5071077;28;20028;-59
2023/08/21 12:06:21;;;;;;;7.15;2.80;;;28.80;99.90;;;;;;5071427;28;20035;-59
2023/08/21 12:08:47;;;;;;;7.68;2.70;;;28.60;99.90;;;;;;5071438;28;20036;-58
2023/08/21 12:11:12;;;;;;;9.23;2.60;;;28.70;99.90;;;;;;5071376;28;20028;-58
2023/08/21 12:13:38;;;;;;;6.95;2.63;;;28.80;99.90;;;;;;5071253;28;20036;-59
2023/08/21 12:16:04;;;;;;;6.70;2.72;;;29.00;99.90;;;;;;5070979;28;20291;-59
2023/08/21 12:18:30;;;;;;;7.13;2.67;;;29.30;99.90;;;;;;5070838;28;20032;-59
2023/08/21 12:20:56;;;;;;;8.63;2.67;;;29.50;99.90;;;;;;5071537;28;20099;-59
2023/08/21 12:23:21;;;;;;;6.72;2.90;;;29.30;99.90;;;;;;5071239;28;20077;-59
2023/08/21 12:25:47;;;;;;;6.75;2.72;;;29.30;99.90;;;;;;5070958;28;20043;-59
2023/08/21 12:28:13;;;;;;;6.25;2.50;;;29.40;99.90;;;;;;5071235;28;20029;-58
2023/08/21 12:30:39;;;;;;;5.88;2.53;;;29.20;99.90;;;;;;5071025;28;20029;-57
2023/08/21 12:33:04;;;;;;;6.03;2.70;;;29.40;99.90;;;;;;5070962;28;20468;-58
2023/08/21 12:35:30;;;;;;;6.47;2.53;;;29.30;99.90;;;;;;5077595;28;20032;-59
2023/08/21 12:37:57;;;;;;;5.55;2.42;;;29.40;99.90;;;;;;5077741;28;20500;-59
2023/08/21 12:40:23;;;;;;;6.28;2.47;;;29.50;99.90;;;;;;5078063;28;20024;-59
2023/08/21 12:42:50;;;;;;;7.03;2.58;;;29.50;99.90;;;;;;5077595;28;20031;-58